createdAt,value
2019-03-06T00:01:39.710Z,63.71
2019-03-06T00:04:09.192Z,63.59
2019-03-06T00:06:38.639Z,63.91
2019-03-06T00:09:08.938Z,63.63
2019-03-06T00:11:57.843Z,63.80
2019-03-06T00:14:46.757Z,63.75
2019-03-06T00:17:35.535Z,63.51
2019-03-06T00:20:24.385Z,63.40
2019-03-06T00:23:13.249Z,63.53
2019-03-06T00:26:02.182Z,63.66
2019-03-06T00:28:50.980Z,63.77
2019-03-06T00:31:39.872Z,63.68
2019-03-06T00:34:28.670Z,63.68
2019-03-06T00:37:17.576Z,63.57
2019-03-06T00:43:09.170Z,63.35
2019-03-06T00:45:58.065Z,63.63
2019-03-06T00:48:46.931Z,63.68
2019-03-06T00:51:35.869Z,63.30
2019-03-06T00:54:24.675Z,63.47
2019-03-06T00:57:13.498Z,63.44
2019-03-06T01:00:02.344Z,63.64
2019-03-06T01:02:51.154Z,63.57
2019-03-06T01:05:39.975Z,63.85
2019-03-06T01:08:28.871Z,64.09
2019-03-06T01:11:17.849Z,64.16
2019-03-06T01:14:06.731Z,64.49
2019-03-06T01:16:55.566Z,64.73
2019-03-06T01:19:44.361Z,64.71
2019-03-06T01:22:33.201Z,64.82
2019-03-06T01:25:22.531Z,65.01
2019-03-06T01:28:11.350Z,64.99
2019-03-06T01:31:00.235Z,65.09
2019-03-06T01:34:08.117Z,65.26
2019-03-06T01:40:11.833Z,65.59
2019-03-06T01:43:19.771Z,65.88
2019-03-06T01:46:08.636Z,65.67
2019-03-06T01:48:57.630Z,65.82
2019-03-06T01:51:46.609Z,66.04
2019-03-06T01:54:35.417Z,66.18
2019-03-06T01:57:24.247Z,66.11
2019-03-06T02:00:33.995Z,66.28
2019-03-06T02:03:22.966Z,66.30
2019-03-06T02:06:11.764Z,66.45
2019-03-06T02:09:00.758Z,66.66
2019-03-06T02:11:49.651Z,66.80
2019-03-06T02:14:38.454Z,66.90
2019-03-06T02:17:27.280Z,66.95
2019-03-06T02:20:35.432Z,66.86
2019-03-06T02:23:17.567Z,66.99
2019-03-06T02:26:06.475Z,66.80
2019-03-06T02:28:55.285Z,66.99
2019-03-06T02:31:44.114Z,67.11
2019-03-06T02:34:32.943Z,66.95
2019-03-06T02:37:21.811Z,66.89
2019-03-06T02:40:10.942Z,66.99
2019-03-06T02:42:59.784Z,66.90
2019-03-06T02:45:48.647Z,66.81
2019-03-06T02:48:37.497Z,66.83
2019-03-06T02:51:26.286Z,66.88
2019-03-06T02:54:15.148Z,66.97
2019-03-06T02:57:04.002Z,66.98
2019-03-06T03:00:11.864Z,67.06
2019-03-06T03:06:00.043Z,67.03
2019-03-06T03:08:50.564Z,67.00
2019-03-06T03:11:39.388Z,67.10
2019-03-06T03:17:29.157Z,67.29
2019-03-06T03:20:18.016Z,67.30
2019-03-06T03:22:59.771Z,67.37
2019-03-06T03:25:48.887Z,67.40
2019-03-06T03:28:30.783Z,67.34
2019-03-06T03:31:19.617Z,67.39
2019-03-06T03:34:08.442Z,67.42
2019-03-06T03:36:57.270Z,67.43
2019-03-06T03:39:46.173Z,67.71
2019-03-06T03:42:34.974Z,67.89
2019-03-06T03:45:23.889Z,68.03
2019-03-06T03:48:12.678Z,68.14
2019-03-06T03:51:01.591Z,68.06
2019-03-06T03:53:50.389Z,68.06
2019-03-06T03:56:39.235Z,67.98
2019-03-06T03:59:28.110Z,68.01
2019-03-06T04:02:16.921Z,67.93
2019-03-06T04:05:26.656Z,67.90
2019-03-06T04:08:15.509Z,67.89
2019-03-06T04:11:04.464Z,67.67
2019-03-06T04:13:53.340Z,67.65
2019-03-06T04:16:42.135Z,67.42
2019-03-06T04:19:30.979Z,67.37
2019-03-06T04:22:13.095Z,67.38
2019-03-06T04:25:01.935Z,67.36
2019-03-06T04:27:50.833Z,67.34
2019-03-06T04:30:39.664Z,67.31
2019-03-06T04:33:28.468Z,67.38
2019-03-06T04:36:17.306Z,67.31
2019-03-06T04:39:06.285Z,67.29
2019-03-06T04:41:55.128Z,67.40
2019-03-06T04:44:44.000Z,67.42
2019-03-06T04:47:32.834Z,67.41
2019-03-06T04:50:21.617Z,67.47
2019-03-06T04:53:10.492Z,67.37
2019-03-06T04:55:59.346Z,67.32
2019-03-06T04:58:48.181Z,67.28
2019-03-06T05:01:37.017Z,67.09
2019-03-06T05:04:25.860Z,67.10
2019-03-06T05:07:14.688Z,67.02
2019-03-06T05:13:31.925Z,66.92
2019-03-06T05:19:16.375Z,66.89
2019-03-06T05:21:56.279Z,66.91
2019-03-06T05:24:45.209Z,66.91
2019-03-06T05:27:34.068Z,66.93
2019-03-06T05:33:20.231Z,66.92
2019-03-06T05:39:45.797Z,66.90
2019-03-06T05:42:34.572Z,66.70
2019-03-06T05:45:23.476Z,66.73
2019-03-06T05:48:12.439Z,66.72
2019-03-06T05:51:01.321Z,66.77
2019-03-06T05:53:50.159Z,66.68
2019-03-06T05:56:39.046Z,66.57
2019-03-06T05:59:27.908Z,66.52
2019-03-06T06:02:16.760Z,66.35
2019-03-06T06:05:26.492Z,66.48
2019-03-06T06:08:15.308Z,66.46
2019-03-06T06:11:04.188Z,66.54
2019-03-06T06:13:53.017Z,66.33
2019-03-06T06:16:41.823Z,66.41
2019-03-06T06:19:30.675Z,66.32
2019-03-06T06:22:31.735Z,66.23
2019-03-06T06:25:20.623Z,66.36
2019-03-06T06:28:09.417Z,66.34
2019-03-06T06:30:58.225Z,66.29
2019-03-06T06:33:47.057Z,66.32
2019-03-06T06:36:35.952Z,66.29
2019-03-06T06:39:24.768Z,66.14
2019-03-06T06:42:13.576Z,66.21
2019-03-06T06:45:02.416Z,66.03
2019-03-06T06:48:11.762Z,65.90
2019-03-06T06:51:39.310Z,65.77
2019-03-06T06:54:47.970Z,65.81
2019-03-06T06:57:57.747Z,65.47
2019-03-06T07:04:26.007Z,64.89
2019-03-06T07:07:03.145Z,64.95
2019-03-06T07:09:50.363Z,64.70
2019-03-06T07:12:33.393Z,64.48
2019-03-06T07:15:06.970Z,64.38
2019-03-06T07:17:46.634Z,64.26
2019-03-06T07:20:17.853Z,64.44
2019-03-06T07:22:54.763Z,63.87
2019-03-06T07:25:31.646Z,63.98
2019-03-06T07:28:08.276Z,63.89
2019-03-06T07:30:42.195Z,63.64
2019-03-06T07:33:22.760Z,63.65
2019-03-06T07:35:56.647Z,63.77
2019-03-06T07:38:26.471Z,63.35
2019-03-06T07:41:13.762Z,63.13
2019-03-06T07:43:51.499Z,62.76
2019-03-06T07:46:23.464Z,62.16
2019-03-06T07:49:06.450Z,62.28
2019-03-06T07:51:46.459Z,62.12
2019-03-06T07:54:28.032Z,61.88
2019-03-06T07:57:11.958Z,61.76
2019-03-06T07:59:41.476Z,61.13
2019-03-06T08:02:24.682Z,61.06
2019-03-06T08:04:55.694Z,61.04
2019-03-06T08:07:25.318Z,60.93
2019-03-06T08:09:54.898Z,60.35
2019-03-06T08:12:24.186Z,60.41
2019-03-06T08:15:11.266Z,59.79
2019-03-06T08:17:48.441Z,59.52
2019-03-06T08:20:37.490Z,59.23
2019-03-06T08:23:09.949Z,59.30
2019-03-06T08:25:41.642Z,58.81
2019-03-06T08:28:11.393Z,59.00
2019-03-06T08:30:43.355Z,58.56
2019-03-06T08:33:18.116Z,58.80
2019-03-06T08:35:44.312Z,58.36
2019-03-06T08:38:13.835Z,58.26
2019-03-06T08:40:43.399Z,58.28
2019-03-06T08:43:12.981Z,57.51
2019-03-06T08:45:48.090Z,57.79
2019-03-06T08:48:27.764Z,57.49
2019-03-06T08:51:01.457Z,57.01
2019-03-06T08:53:41.508Z,56.47
2019-03-06T08:56:12.608Z,56.42
2019-03-06T08:58:46.586Z,56.66
2019-03-06T09:01:48.182Z,56.45
2019-03-06T09:04:17.673Z,55.81
2019-03-06T09:07:04.845Z,56.26
2019-03-06T09:09:47.862Z,54.97
2019-03-06T09:12:24.587Z,55.25
2019-03-06T09:14:56.609Z,55.16
2019-03-06T09:17:36.806Z,54.99
2019-03-06T09:20:23.778Z,53.39
2019-03-06T09:23:11.142Z,53.41
2019-03-06T09:25:43.462Z,53.27
2019-03-06T09:28:20.566Z,53.25
2019-03-06T09:30:51.628Z,52.16
2019-03-06T09:33:25.577Z,51.98
2019-03-06T09:35:56.802Z,52.23
2019-03-06T09:38:44.413Z,51.72
2019-03-06T09:41:24.817Z,51.60
2019-03-06T09:43:58.959Z,50.38
2019-03-06T09:46:30.061Z,51.02
2019-03-06T09:49:11.133Z,50.78
2019-03-06T09:51:42.517Z,50.26
2019-03-06T09:54:17.782Z,49.27
2019-03-06T09:56:52.947Z,49.39
2019-03-06T09:59:24.664Z,49.61
2019-03-06T10:02:08.577Z,49.78
2019-03-06T10:04:39.812Z,49.42
2019-03-06T10:07:19.574Z,49.64
2019-03-06T10:10:05.496Z,48.10
2019-03-06T10:12:47.269Z,48.18
2019-03-06T10:15:14.175Z,49.10
2019-03-06T10:17:47.917Z,48.22
2019-03-06T10:20:25.166Z,47.94
2019-03-06T10:22:54.842Z,47.71
2019-03-06T10:25:30.014Z,47.46
2019-03-06T10:28:05.705Z,46.73
2019-03-06T10:30:27.993Z,47.20
2019-03-06T10:32:57.926Z,46.12
2019-03-06T10:35:27.487Z,46.61
2019-03-06T10:37:57.266Z,46.22
2019-03-06T10:40:26.801Z,45.42
2019-03-06T10:42:58.255Z,45.33
2019-03-06T10:45:27.748Z,45.41
2019-03-06T10:47:57.573Z,45.56
2019-03-06T10:50:30.428Z,46.29
2019-03-06T10:52:58.497Z,44.42
2019-03-06T10:55:28.130Z,45.53
2019-03-06T10:57:57.924Z,45.22
2019-03-06T11:00:32.367Z,45.87
2019-03-06T11:03:02.258Z,44.92
2019-03-06T11:05:33.540Z,44.90
2019-03-06T11:08:03.826Z,44.94
2019-03-06T11:10:34.850Z,44.96
2019-03-06T11:13:09.388Z,44.37
2019-03-06T11:15:40.143Z,44.94
2019-03-06T11:18:10.711Z,43.64
2019-03-06T11:20:40.913Z,44.49
2019-03-06T11:23:12.451Z,43.85
2019-03-06T11:25:42.768Z,43.18
2019-03-06T11:28:15.308Z,42.25
2019-03-06T11:30:49.039Z,43.91
2019-03-06T11:33:20.973Z,44.19
2019-03-06T11:35:51.548Z,42.66
2019-03-06T11:38:22.159Z,42.37
2019-03-06T11:40:51.778Z,43.03
2019-03-06T11:43:21.437Z,42.54
2019-03-06T11:45:50.987Z,42.41
2019-03-06T11:48:21.019Z,42.36
2019-03-06T11:50:50.709Z,42.07
2019-03-06T11:53:20.476Z,42.81
2019-03-06T11:55:50.123Z,42.66
2019-03-06T11:58:20.123Z,43.53
2019-03-06T12:00:50.138Z,42.00
2019-03-06T12:03:21.985Z,42.94
2019-03-06T12:05:51.996Z,42.81
2019-03-06T12:08:45.650Z,43.36
2019-03-06T12:11:12.238Z,42.77
2019-03-06T12:14:01.181Z,42.14
2019-03-06T12:16:49.997Z,42.82
2019-03-06T12:19:38.849Z,42.50
2019-03-06T12:22:27.743Z,43.42
2019-03-06T12:25:11.271Z,43.25
2019-03-06T12:28:00.223Z,42.32
2019-03-06T12:30:49.227Z,42.76
2019-03-06T12:33:39.835Z,42.55
2019-03-06T12:36:28.707Z,42.28
2019-03-06T12:39:17.897Z,42.23
2019-03-06T12:42:13.960Z,42.16
2019-03-06T12:44:57.454Z,41.97
2019-03-06T12:48:07.285Z,41.89
2019-03-06T12:50:56.497Z,41.42
2019-03-06T12:53:46.831Z,41.44
2019-03-06T12:56:35.781Z,41.95
2019-03-06T12:59:24.629Z,41.95
2019-03-06T13:02:13.482Z,42.77
2019-03-06T13:05:02.406Z,42.49
2019-03-06T13:07:51.424Z,42.71
2019-03-06T13:10:40.281Z,43.53
2019-03-06T13:13:35.485Z,43.38
2019-03-06T13:16:19.853Z,43.42
2019-03-06T13:19:08.796Z,43.22
2019-03-06T13:21:57.780Z,43.58
2019-03-06T13:24:46.347Z,42.90
2019-03-06T13:27:27.717Z,43.77
2019-03-06T13:30:37.804Z,44.30
2019-03-06T13:36:22.313Z,45.04
2019-03-06T13:39:11.228Z,43.72
2019-03-06T13:42:00.086Z,43.82
2019-03-06T13:44:49.077Z,44.52
2019-03-06T13:47:31.004Z,43.67
2019-03-06T13:50:19.934Z,43.85
2019-03-06T13:53:08.804Z,43.46
2019-03-06T13:55:57.735Z,43.55
2019-03-06T13:58:46.585Z,43.39
2019-03-06T14:01:35.481Z,42.79
2019-03-06T14:04:05.065Z,42.80
2019-03-06T14:06:53.911Z,42.54
2019-03-06T14:09:42.759Z,43.15
2019-03-06T14:12:31.738Z,42.74
2019-03-06T14:15:20.957Z,43.17
2019-03-06T14:18:10.178Z,43.37
2019-03-06T14:20:59.084Z,43.47
2019-03-06T14:23:48.018Z,43.68
2019-03-06T14:26:36.968Z,43.52
2019-03-06T14:29:25.828Z,43.39
2019-03-06T14:32:15.119Z,43.83
2019-03-06T14:38:19.030Z,44.04
2019-03-06T14:41:07.901Z,43.96
2019-03-06T14:43:56.859Z,44.12
2019-03-06T14:46:26.581Z,44.35
2019-03-06T14:48:56.417Z,44.41
2019-03-06T14:51:26.145Z,44.78
2019-03-06T14:53:55.939Z,45.04
2019-03-06T14:56:26.124Z,45.14
2019-03-06T14:58:55.742Z,45.37
2019-03-06T15:01:25.296Z,45.63
2019-03-06T15:03:54.868Z,44.76
2019-03-06T15:06:24.486Z,45.35
2019-03-06T15:08:54.128Z,45.18
2019-03-06T15:11:32.741Z,45.03
2019-03-06T15:13:55.139Z,45.37
2019-03-06T15:16:24.681Z,45.26
2019-03-06T15:18:54.235Z,44.73
2019-03-06T15:21:23.898Z,45.18
2019-03-06T15:23:53.781Z,45.53
2019-03-06T15:26:23.301Z,45.81
2019-03-06T15:28:52.803Z,46.49
2019-03-06T15:31:22.439Z,46.15
2019-03-06T15:33:52.049Z,45.78
2019-03-06T15:36:21.728Z,45.66
2019-03-06T15:38:51.402Z,45.87
2019-03-06T15:41:20.947Z,45.51
2019-03-06T15:43:50.457Z,45.54
2019-03-06T15:46:19.980Z,45.77
2019-03-06T15:48:49.593Z,45.61
2019-03-06T15:51:20.516Z,45.37
2019-03-06T15:53:50.032Z,45.15
2019-03-06T15:56:19.656Z,45.68
2019-03-06T15:58:49.241Z,45.54
2019-03-06T16:01:19.004Z,45.81
2019-03-06T16:03:48.523Z,45.51
2019-03-06T16:06:20.644Z,45.66
2019-03-06T16:08:49.981Z,45.39
2019-03-06T16:11:21.253Z,45.17
2019-03-06T16:13:50.830Z,45.20
2019-03-06T16:16:20.386Z,45.29
2019-03-06T16:18:50.019Z,45.01
2019-03-06T16:21:19.773Z,45.35
2019-03-06T16:23:49.333Z,45.42
2019-03-06T16:26:18.910Z,45.24
2019-03-06T16:28:48.474Z,45.33
2019-03-06T16:31:17.974Z,45.74
2019-03-06T16:33:49.201Z,45.42
2019-03-06T16:36:18.864Z,45.23
2019-03-06T16:38:48.343Z,45.42
2019-03-06T16:41:18.012Z,45.51
2019-03-06T16:43:49.176Z,45.68
2019-03-06T16:46:18.722Z,45.57
2019-03-06T16:48:48.261Z,45.96
2019-03-06T16:51:17.875Z,46.24
2019-03-06T16:53:49.155Z,45.54
2019-03-06T16:56:18.767Z,46.04
2019-03-06T16:58:48.556Z,45.79
2019-03-06T17:01:18.200Z,45.87
2019-03-06T17:03:47.789Z,46.17
2019-03-06T17:06:17.408Z,46.21
2019-03-06T17:08:46.988Z,46.46
2019-03-06T17:11:16.641Z,46.52
2019-03-06T17:13:48.803Z,46.66
2019-03-06T17:16:17.658Z,46.82
2019-03-06T17:18:47.375Z,47.08
2019-03-06T17:21:17.001Z,47.04
2019-03-06T17:23:48.294Z,47.30
2019-03-06T17:26:17.881Z,46.98
2019-03-06T17:28:47.454Z,47.09
2019-03-06T17:31:16.993Z,47.30
2019-03-06T17:33:48.328Z,47.44
2019-03-06T17:36:17.901Z,47.99
2019-03-06T17:38:47.551Z,48.23
2019-03-06T17:41:17.181Z,48.33
2019-03-06T17:43:46.668Z,48.59
2019-03-06T17:46:35.601Z,48.29
2019-03-06T17:49:05.418Z,48.04
2019-03-06T17:51:35.013Z,48.15
2019-03-06T17:54:04.717Z,48.46
2019-03-06T17:56:34.381Z,48.69
2019-03-06T17:59:03.872Z,48.83
2019-03-06T18:01:33.630Z,49.00
2019-03-06T18:04:07.715Z,49.29
2019-03-06T18:06:37.312Z,49.92
2019-03-06T18:09:07.853Z,50.92
2019-03-06T18:11:37.402Z,51.40
2019-03-06T18:14:06.973Z,51.91
2019-03-06T18:16:37.295Z,52.27
2019-03-06T18:19:06.939Z,52.27
2019-03-06T18:21:36.424Z,52.97
2019-03-06T18:24:06.094Z,53.29
2019-03-06T18:26:35.734Z,53.64
2019-03-06T18:29:05.318Z,54.27
2019-03-06T18:31:35.217Z,54.30
2019-03-06T18:34:04.804Z,54.64
2019-03-06T18:36:34.385Z,54.89
2019-03-06T18:39:06.135Z,55.89
2019-03-06T18:41:35.690Z,56.17
2019-03-06T18:44:05.275Z,56.35
2019-03-06T18:46:34.898Z,56.12
2019-03-06T18:49:04.500Z,56.40
2019-03-06T18:51:34.081Z,56.37
2019-03-06T18:54:03.802Z,56.51
2019-03-06T18:56:33.366Z,56.60
2019-03-06T18:59:02.936Z,56.80
2019-03-06T19:01:32.509Z,56.79
2019-03-06T19:04:02.049Z,56.84
2019-03-06T19:06:31.571Z,56.55
2019-03-06T19:09:01.194Z,56.52
2019-03-06T19:11:30.790Z,56.75
2019-03-06T19:14:00.497Z,56.58
2019-03-06T19:16:30.051Z,56.44
2019-03-06T19:18:59.538Z,56.12
2019-03-06T19:21:29.119Z,56.34
2019-03-06T19:23:58.579Z,56.38
2019-03-06T19:26:28.042Z,56.29
2019-03-06T19:28:57.888Z,55.74
2019-03-06T19:31:27.475Z,55.89
2019-03-06T19:33:57.299Z,55.72
2019-03-06T19:36:26.928Z,55.87
2019-03-06T19:38:56.470Z,55.88
2019-03-06T19:41:26.036Z,55.56
2019-03-06T19:43:55.726Z,55.45
2019-03-06T19:46:25.239Z,55.74
2019-03-06T19:48:54.723Z,55.70
2019-03-06T19:51:24.248Z,55.17
2019-03-06T19:53:53.748Z,55.23
2019-03-06T19:56:23.257Z,55.40
2019-03-06T19:58:52.877Z,55.53
2019-03-06T20:01:22.471Z,55.72
2019-03-06T20:03:52.045Z,55.65
2019-03-06T20:06:27.067Z,55.92
2019-03-06T20:08:52.930Z,56.08
2019-03-06T20:11:22.509Z,55.79
2019-03-06T20:13:51.999Z,56.06
2019-03-06T20:16:23.511Z,56.23
2019-03-06T20:18:52.691Z,56.25
2019-03-06T20:21:22.198Z,56.50
2019-03-06T20:23:51.693Z,56.51
2019-03-06T20:26:22.400Z,56.65
2019-03-06T20:28:51.866Z,56.91
2019-03-06T20:31:21.451Z,57.49
2019-03-06T20:33:50.958Z,57.83
2019-03-06T20:36:20.501Z,57.79
2019-03-06T20:38:49.994Z,58.42
2019-03-06T20:41:19.576Z,58.30
2019-03-06T20:43:49.045Z,59.19
2019-03-06T20:46:18.523Z,59.75
2019-03-06T20:48:48.186Z,59.66
2019-03-06T20:51:17.691Z,60.05
2019-03-06T20:53:49.636Z,60.50
2019-03-06T20:56:18.421Z,60.32
2019-03-06T20:58:47.904Z,60.80
2019-03-06T21:01:17.654Z,61.08
2019-03-06T21:03:50.159Z,61.39
2019-03-06T21:06:18.309Z,61.45
2019-03-06T21:08:47.794Z,61.71
2019-03-06T21:11:17.349Z,61.38
2019-03-06T21:13:46.800Z,61.08
2019-03-06T21:16:16.295Z,62.60
2019-03-06T21:18:45.740Z,62.44
2019-03-06T21:21:15.274Z,62.44
2019-03-06T21:23:44.782Z,62.07
2019-03-06T21:26:14.254Z,62.17
2019-03-06T21:28:43.746Z,62.19
2019-03-06T21:31:13.212Z,62.68
2019-03-06T21:33:42.672Z,62.25
2019-03-06T21:36:12.351Z,62.53
2019-03-06T21:38:41.840Z,62.65
2019-03-06T21:41:11.391Z,62.53
2019-03-06T21:43:40.904Z,62.88
2019-03-06T21:46:10.465Z,62.99
2019-03-06T21:48:40.009Z,63.13
2019-03-06T21:51:09.689Z,63.09
2019-03-06T21:53:39.276Z,63.45
2019-03-06T21:56:08.834Z,63.06
2019-03-06T21:58:38.337Z,63.44
2019-03-06T22:01:07.858Z,63.68
2019-03-06T22:03:37.353Z,63.73
2019-03-06T22:06:06.914Z,63.87
2019-03-06T22:08:36.397Z,63.70
2019-03-06T22:11:05.852Z,63.75
2019-03-06T22:13:35.338Z,63.44
2019-03-06T22:16:04.918Z,63.93
2019-03-06T22:18:35.375Z,64.16
2019-03-06T22:21:05.017Z,63.97
2019-03-06T22:23:34.492Z,64.19
2019-03-06T22:26:03.960Z,64.32
2019-03-06T22:28:33.463Z,64.44
2019-03-06T22:31:03.182Z,64.64
2019-03-06T22:33:32.669Z,64.38
2019-03-06T22:36:02.170Z,64.79
2019-03-06T22:38:31.645Z,65.04
2019-03-06T22:41:01.129Z,64.98
2019-03-06T22:43:30.601Z,65.10
2019-03-06T22:46:00.358Z,65.10
2019-03-06T22:48:29.935Z,65.06
2019-03-06T22:50:59.444Z,65.18
2019-03-06T22:53:29.171Z,65.17
2019-03-06T22:55:58.734Z,65.16
2019-03-06T22:58:28.202Z,64.95
2019-03-06T23:01:02.387Z,65.08
2019-03-06T23:03:32.030Z,65.03
2019-03-06T23:06:01.665Z,64.95
2019-03-06T23:08:31.206Z,64.97
2019-03-06T23:11:00.779Z,64.83
2019-03-06T23:13:30.260Z,64.64
2019-03-06T23:15:59.739Z,64.76
2019-03-06T23:18:29.524Z,64.70
2019-03-06T23:20:59.186Z,64.39
2019-03-06T23:23:28.733Z,64.34
2019-03-06T23:25:58.510Z,64.79
2019-03-06T23:28:27.986Z,64.76
2019-03-06T23:30:57.567Z,64.37
2019-03-06T23:33:27.437Z,64.26
2019-03-06T23:35:56.906Z,64.27
2019-03-06T23:38:26.394Z,64.96
2019-03-06T23:40:55.959Z,64.68
2019-03-06T23:43:25.496Z,64.97
2019-03-06T23:45:54.981Z,64.75
2019-03-06T23:48:24.463Z,64.53
2019-03-06T23:50:54.090Z,64.76
2019-03-06T23:53:24.608Z,64.66
2019-03-06T23:55:54.101Z,65.05
2019-03-06T23:58:23.584Z,65.05
